LTBR

Yenişehir Airport

Airport
ICAO code
LTBR
IATA Code
YEI
Summary
ICAO Region
EUR
ICAO Territory
Location

Yenişehir, Bursa,

Serving
Bursa
Elevation
764 ft
Coordinates
40° 15' 28" N , 29° 32' 38" E
Metar
LTBR 201720Z 26008KT 9999 SCT035 BKN100 10/09 Q1008 NOSIG

Runways

Designator Length Width Surface Rops
07L/25R 2993 45 CON Yes/Yes
07R/25L 2993 30 CON Yes/Yes

Airport map

Aerial View

SKYbrary Partners:

Safety knowledge contributed by: